Portada
METAR-TAF:

METAR-TAF

Aeropuertos :

Jinotega, Nicaragua

latitud: 13-05N, longitud: 085-59W, altitud: 985 m

Observación

El informe se hizo hace 1 hora y 3 minutos, a las 21:00 UTC
Viento 4 kt del noroeste
Temperatura 25°C
Humedad 69%
Presión 1013 hPa
Visibilidad: 5000 m
Cielo nuboso a una altura de 1000 ft
llovizna,

METAR: MNJG 232100Z 32004KT 5000 DZ BKN010 25/19 Q1013

Hora: 16:03 (22:03 UTC)


TAF: falta

Observaciones y pronósticos meteorológicos de más de 4000 aeropuertos (mensajes METAR y TAF).

Los puntos amarillos y rojos representan las estaciones disponibles.

Ponga el ratón en el punto deseado para ver el nombre de la estación.

Haga clic para ver las observaciones y los pronósticos meteorológicos.

Para cambiar el mapa : haga clic en los botones verdes con una cruz de color negro para hacer un zoom, en el botón verde con un guión para alejar o en las flechas verdes para mapas adyacentes.


METAR-TAF: